AirNav   Air Wisconsin Up To $57,000 Bonus
 
 531 users online  

MI26 Cloud 9 Airport
Parkers Corners, Michigan, USA

GOING TO PARKERS CORNERS?


FAA INFORMATION EFFECTIVE 07 OCTOBER 2021

Location

FAA Identifier: MI26
Lat/Long: 42-33-05.4000N 084-05-53.8400W
42-33.090000N 084-05.897333W
42.5515000,-84.0982889
(estimated)
Elevation: 930 ft. / 283 m (estimated)
Variation: 05W (1990)
From city: 1 mile SE of PARKERS CORNERS, MI
Time zone: UTC -4 (UTC -5 during Standard Time)
Zip code: 48137

Airport Operations

Airport use: Private use. Permission required prior to landing
Activation date: 12/1992
Control tower: no
ARTCC: CLEVELAND CENTER
FSS: LANSING FLIGHT SERVICE STATION
Attendance: UNATNDD
Wind indicator: yes
Segmented circle: no

Airport Communications

CTAF: 122.75
WX AWOS-3 at OZW (7 nm NE): 118.875 (517-546-4450)
WX AWOS-3P at TEW (14 nm W): 119.425 (517-676-5607)

Nearby radio navigation aids

VOR radial/distance  VOR name  Freq  Var
SVMr294/23.9SALEM VORTAC114.3003W
FNTr218/29.3FLINT VORTAC116.9006W
DXOr308/38.3DETROIT VOR/DME113.4006W

 
NDB name  Hdg/Dist  Freq  Var  ID
TECUMSEH349/32.423906WTCU - -.-. ..-

Airport Services

Runway Information

Runway 6/24

Dimensions: 3450 x 150 ft. / 1052 x 46 m
Surface: turf
RUNWAY 6  RUNWAY 24
Traffic pattern: leftleft
Obstructions: nonetrees

Airport Ownership and Management from official FAA records

Ownership: Privately-owned
Owner: TRACY TILLMAN & LISA COLLETTI
9830 W COON LAKE ROAD
WEBBERVILLE, MI 48892-9001
Phone (248) 921-0092
Manager: TRACY TILLMAN
9830 W COON LAKE RD
WEBBERVILLE, MI 48892-9001
Phone (248) 921-0092

Airport Operational Statistics

Aircraft based on the field: 6
Single engine airplanes: 5
Gliders airplanes: 1
    
Aircraft operations: 200/year
100% local general aviation

Additional Remarks

GLD TOWING AND FLIGHT T ACT.
FOR CD CTC DETROIT APCH AT 734-955-1404.

Instrument Procedures

There are no published instrument procedures at MI26.

Some nearby airports with instrument procedures:

KOZW - Livingston County Spencer J Hardy Airport (7 nm NE)
KTEW - Mason Jewett Field Airport (14 nm W)
9G2 - Price's Airport (21 nm NE)
Y47 - Oakland Southwest Airport (21 nm E)
KJXN - Jackson County Airport-Reynolds Field (24 nm SW)
 
Loc | Ops | Rwys | IFR | FBO | Links
Com | Nav | Svcs | Stats | Notes
Aerial photo
WARNING: Photo may not be current or correct
Aerial photo of MI26 (Cloud 9 Airport)
Taken in 2006

Do you have a better or more recent aerial photo of Cloud 9 Airport that you would like to share? If so, please send us your photo.

 
Sectional chart

 
Airport distance calculator
Flying to Cloud 9 Airport? Find the distance to fly.

From to MI26

Sunrise and sunset
Times for 28-Oct-2021
 Local
(UTC-4)
 Zulu
(UTC)
Morning civil twilight07:3711:37
Sunrise08:0612:06
Sunset18:3422:34
Evening civil twilight19:0323:03

Current date and time
Zulu (UTC)  28-Oct-2021 05:41:23
Local (UTC-4)  28-Oct-2021 01:41:23
 
METAR
KOZW 
7nm NE 
280515Z AUTO 11008KT 5SM BR OVC005 10/10 A2988 RMK AO2 T01020101
KTEW 
14nm W 
280515Z AUTO 13003KT 4SM BR OVC006 10/09 A2989 RMK AO2 T01000092
TAF
KJXN 
24nm SW 
280305Z 2803/2824 10008KT 5SM -DZ BR OVC006 FM280400 11007KT 4SM -DZ BR OVC004 FM281100 11012KT P6SM BKN014 FM281700 10012G18KT P6SM FEW018
KLAN 
26nm NW 
280251Z 2803/2824 09004KT 3SM -DZ BR OVC007 TEMPO 2803/2806 2SM -DZ BR OVC005 FM280900 09004KT 5SM BR OVC007 FM281100 10009KT P6SM BKN012 FM281500 10012G20KT P6SM FEW018
KFNT 
29nm NE 
271720Z 2718/2818 02005KT P6SM OVC008 FM280000 06005KT P6SM OVC008 FM280600 07007KT P6SM OVC012 FM281200 08009KT P6SM SCT015 BKN200
NOTAMs
Click for the latest NOTAMs
NOTAMs are issued by the DoD/FAA and will open in a separate window not controlled by AirNav.

 

 
 

Would you like to see your business listed on this page?

 If your business provides an interesting product or service to pilots, flight crews, aircraft, or users of the Cloud 9 Airport, you should consider listing it here.  To start the listing process, click on the button below
 
Add a business
 

Other Pages about Cloud 9 Airport

Update a link
 
Copyright © AirNav, LLC. All rights reserved. Privacy Policy  Contact